createdAt,value
2022-10-20T00:07:24.849Z,9.27
2022-10-20T00:17:26.633Z,11.67
2022-10-20T00:27:28.493Z,8.43
2022-10-20T00:37:30.110Z,12.57
2022-10-20T00:47:40.272Z,9.17
2022-10-20T00:57:44.828Z,15.53
2022-10-20T01:07:46.472Z,9.77
2022-10-20T01:18:09.615Z,8.63
2022-10-20T01:28:26.835Z,12.97
2022-10-20T01:38:42.910Z,11.83
2022-10-20T01:48:46.745Z,9.00
2022-10-20T01:59:12.038Z,14.37
2022-10-20T02:09:24.920Z,10.10
2022-10-20T02:19:32.396Z,22.10
2022-10-20T02:29:39.344Z,13.27
2022-10-20T02:39:40.942Z,13.93
2022-10-20T02:49:42.662Z,11.13
2022-10-20T02:59:44.277Z,10.07
2022-10-20T03:09:45.937Z,9.97
2022-10-20T03:19:47.546Z,11.57
2022-10-20T03:29:49.171Z,10.57
2022-10-20T03:39:50.811Z,10.90
2022-10-20T03:49:52.427Z,10.87
2022-10-20T03:59:54.031Z,12.57
2022-10-20T04:09:56.098Z,12.00
2022-10-20T04:19:57.728Z,11.50
2022-10-20T04:29:59.400Z,12.10
2022-10-20T04:40:01.046Z,16.80
2022-10-20T04:50:03.235Z,14.47
2022-10-20T05:00:05.344Z,12.57
2022-10-20T05:10:07.431Z,12.93
2022-10-20T05:20:09.379Z,10.43
2022-10-20T05:30:11.353Z,13.70
2022-10-20T05:43:29.967Z,12.77
2022-10-20T05:53:31.549Z,12.00
2022-10-20T06:03:33.404Z,13.13
2022-10-20T06:13:35.612Z,12.10
2022-10-20T06:23:37.660Z,14.30
2022-10-20T06:33:39.529Z,14.10
2022-10-20T06:43:41.310Z,14.67
2022-10-20T06:53:46.559Z,16.33
2022-10-20T07:03:49.407Z,12.87
2022-10-20T07:13:51.527Z,13.90
2022-10-20T07:23:56.006Z,14.57
2022-10-20T07:34:13.748Z,18.87
2022-10-20T07:44:23.188Z,15.73
2022-10-20T07:54:25.082Z,18.57
2022-10-20T08:04:27.724Z,14.53
2022-10-20T08:14:33.551Z,13.70
2022-10-20T08:24:35.219Z,20.93
2022-10-20T08:34:36.823Z,15.50
2022-10-20T08:44:41.184Z,14.07
2022-10-20T08:54:43.316Z,16.60
2022-10-20T09:04:55.162Z,15.30
2022-10-20T09:14:57.421Z,15.33
2022-10-20T09:24:59.286Z,15.10
2022-10-20T09:35:21.547Z,13.30
2022-10-20T09:45:28.478Z,12.07
2022-10-20T09:55:36.309Z,15.37
2022-10-20T10:05:37.945Z,17.17
2022-10-20T10:15:40.638Z,14.87
2022-10-20T10:25:42.353Z,16.50
2022-10-20T10:35:44.573Z,12.00
2022-10-20T10:45:56.720Z,15.27
2022-10-20T10:56:23.351Z,13.40
2022-10-20T11:06:37.016Z,15.03
2022-10-20T11:16:38.650Z,13.50
2022-10-20T11:27:07.429Z,15.33
2022-10-20T11:37:26.111Z,13.23
2022-10-20T11:47:40.883Z,12.30
2022-10-20T11:58:01.217Z,17.03
2022-10-20T12:08:36.208Z,12.13
2022-10-20T12:18:37.988Z,12.10
2022-10-20T12:28:42.574Z,11.83
2022-10-20T12:38:47.697Z,12.67
2022-10-20T12:48:56.650Z,10.70
2022-10-20T12:59:23.774Z,12.47
2022-10-20T13:09:25.548Z,12.23
2022-10-20T13:19:49.957Z,19.73
2022-10-20T13:29:51.860Z,16.87
2022-10-20T13:40:24.346Z,11.97
2022-10-20T13:50:33.964Z,12.73
2022-10-20T14:00:36.186Z,11.43
2022-10-20T14:10:47.922Z,10.87
2022-10-20T14:20:55.774Z,11.07
2022-10-20T14:30:57.475Z,15.87
2022-10-20T14:40:59.797Z,13.07
2022-10-20T14:51:01.539Z,12.50
2022-10-20T15:01:25.874Z,13.50
2022-10-20T15:11:31.520Z,13.27
2022-10-20T15:21:33.107Z,17.83
2022-10-20T15:31:34.778Z,22.07
2022-10-20T15:41:36.945Z,15.63
2022-10-20T15:51:41.105Z,16.00
2022-10-20T16:01:42.691Z,15.30
2022-10-20T16:11:44.629Z,18.53
2022-10-20T16:21:46.218Z,18.47
2022-10-20T16:31:48.437Z,18.80
2022-10-20T16:41:50.171Z,17.47
2022-10-20T16:51:52.127Z,22.03
2022-10-20T17:01:55.105Z,16.20
2022-10-20T17:11:57.142Z,24.73
2022-10-20T17:21:58.831Z,17.33
2022-10-20T17:32:00.570Z,28.77
2022-10-20T17:42:02.621Z,16.67
2022-10-20T17:52:04.304Z,19.50
2022-10-20T18:02:05.922Z,17.83
2022-10-20T18:12:07.862Z,19.70
2022-10-20T18:22:09.480Z,22.00
2022-10-20T18:32:11.488Z,21.03
2022-10-20T18:42:13.140Z,19.37
2022-10-20T18:52:14.794Z,20.07
2022-10-20T19:02:16.464Z,22.53
2022-10-20T19:12:18.160Z,19.57
2022-10-20T19:22:20.322Z,19.50
2022-10-20T19:32:22.061Z,20.60
2022-10-20T19:42:23.796Z,25.90
2022-10-20T19:52:25.380Z,31.77
2022-10-20T20:02:27.031Z,21.67
2022-10-20T20:12:28.638Z,28.77
2022-10-20T20:22:30.527Z,23.77
2022-10-20T20:32:32.650Z,22.23
2022-10-20T20:42:34.245Z,22.33
2022-10-20T20:52:35.856Z,20.23
2022-10-20T21:02:37.440Z,20.83
2022-10-20T21:12:39.248Z,21.87
2022-10-20T21:22:41.077Z,22.90
2022-10-20T21:32:42.694Z,22.13
2022-10-20T21:42:44.318Z,20.90
2022-10-20T21:52:49.737Z,20.93
2022-10-20T22:02:51.345Z,22.17
2022-10-20T22:12:52.934Z,20.13
2022-10-20T22:22:54.548Z,18.70
2022-10-20T22:32:56.166Z,18.20
2022-10-20T22:42:57.771Z,20.53
2022-10-20T22:52:59.396Z,20.07
2022-10-20T23:03:01.045Z,20.60
2022-10-20T23:13:02.660Z,21.93
2022-10-20T23:23:04.269Z,20.30
2022-10-20T23:33:05.874Z,19.27
2022-10-20T23:43:07.468Z,19.30
2022-10-20T23:53:09.112Z,21.27
